Australian Towns and Cities METAR Reports

YMHB - Hobart/Tasmania, Australia
Distance from Franklin: NE 55km
Updated: 23/07/2018 17:00
Nearby showers, Mostly cloudy
Nearby showers, Mostly cloudy
 Wind from N
Wind: N 26 km/h
Temperature: 12°C
Dew Point: 1°C
Humidity: 47%
Barometer: 1004 hPa
Summary: Nearby Showers
Clouds: Mostly cloudy
Visibility: 10 km
Cloud details: Few Clouds 1524 m
Mostly cloudy 3353 m
Mostly cloudy 4572 m
2018/07/23 07:00 YMHB 230700Z 01014KT 9999 VCSH FEW050 BKN110 BKN150 12/01 Q1004
YMLT - Launceston Airpo, Australia
Distance from Franklin: N 179km
Updated: 23/07/2018 17:30
Partly cloudy
Partly cloudy
 Wind from N
Wind: N 17 km/h
Temperature: 9°C
Wind Chill: 7°C
Dew Point: 4°C
Humidity: 71%
Barometer: 1005 hPa
Clouds: Partly cloudy
Visibility: 10 km
Cloud details: Partly cloudy 2012 m
2018/07/23 07:30 YMLT 230730Z AUTO 35009KT 9999 // SCT066 09/04 Q1005 RF00.0/000.2
 
YMML - Melbourne Intl A, Australia
Distance from Franklin: NNW 631km
Updated: 23/07/2018 17:30
Clear
Clear
 Wind from N
Wind: N 50 km/h, Gust: 70 km/h
Temperature: 11°C
Dew Point: 0°C
Humidity: 47%
Barometer: 1004 hPa
Summary: Clear
Visibility: greater than 10 km
2018/07/23 07:30 YMML 230730Z 01027G38KT CAVOK 11/M00 Q1004
YSCB - Canberra (civ/Mi, Australia
Distance from Franklin: NNE 888km
Updated: 23/07/2018 17:30
Clear
Clear
 Wind from NNW
Wind: NNW 13 km/h
Temperature: 7°C
Wind Chill: 5°C
Dew Point: -2°C
Humidity: 53%
Barometer: 1014 hPa
Summary: Clear
Visibility: greater than 10 km
2018/07/23 07:30 YSCB 230730Z 34007KT CAVOK 07/M02 Q1014 FM1000 MOD TURB BLW 5000FT
 
YSSY - Sydney Intl Airp, Australia
Distance from Franklin: NNE 1083km
Updated: 23/07/2018 17:30
Clear
Clear
 Wind from NE
Wind: NE 15 km/h
Temperature: 16°C
Dew Point: 4°C
Humidity: 45%
Barometer: 1014 hPa
Summary: Clear
Visibility: greater than 10 km
2018/07/23 07:30 YSSY 230730Z 04008KT CAVOK 16/04 Q1014 NOSIG
YPAD - Adelaide Intl Ar, Australia
Distance from Franklin: NW 1166km
Updated: 23/07/2018 17:30
Few Clouds
Few Clouds
 Wind from NW
Wind: NW 31 km/h
Temperature: 14°C
Dew Point: 9°C
Humidity: 72%
Barometer: 1005 hPa
Clouds: Few Clouds
Visibility: 10 km
Cloud details: Few Clouds 610 m
2018/07/23 07:30 YPAD 230730Z 31017KT 9999 FEW020 14/09 Q1005 INTER 0730/1000 29025G45KT 5000 SHRA SCT020 BKN030
 
YBBN - Brisbane Intl Ar, Australia
Distance from Franklin: NNE 1836km
Updated: 23/07/2018 17:30
Few Clouds
Few Clouds
 Wind from ENE
Wind: ENE 9 km/h
Temperature: 17°C
Dew Point: 9°C
Humidity: 59%
Barometer: 1018 hPa
Clouds: Few Clouds
Visibility: 10 km
Cloud details: Few Clouds 975 m
2018/07/23 07:30 YBBN 230730Z 06005KT 9999 FEW032 17/09 Q1018 NOSIG
YBMK - Mackay, Australia
Distance from Franklin: N 2456km
Updated: 23/07/2018 17:00
Clear
Clear
 Wind from E
Wind: E 15 km/h
Temperature: 21°C
Dew Point: 15°C
Humidity: 69%
Barometer: 1016 hPa
Clouds: Clear
Visibility: 10 km
2018/07/23 07:00 YBMK 230700Z AUTO 09008KT 9999 // NCD 21/15 Q1016
 
YBAS - Alice Springs Ar, Australia
Distance from Franklin: NNW 2462km
Updated: 23/07/2018 17:30
Clear
Clear
 Wind from WSW
Wind: WSW 19 km/h
Temperature: 28°C
Dew Point: -4°C
Humidity: 12%
Barometer: 1014 hPa
Clouds: Clear
Visibility: 10 km
2018/07/23 07:30 YBAS 230730Z AUTO 24010KT 9999 // NCD 28/M04 Q1014 RF00.0/000.0
YBTL - Townsville(Civ/M, Australia
Distance from Franklin: N 2655km
Updated: 23/07/2018 17:30
Mostly cloudy
Mostly cloudy
 Wind from ENE
Wind: ENE 20 km/h
Temperature: 22°C
Dew Point: 18°C
Humidity: 78%
Barometer: 1016 hPa
Clouds: Mostly cloudy
Visibility: 10 km
Cloud details: Few Clouds 610 m
Mostly cloudy 1524 m
2018/07/23 07:30 YBTL 230730Z 07011KT 9999 FEW020 BKN050 22/18 Q1016 NOSIG RMK USE TAF FOR ARRIVALS AFTER 0800Z
 
YBCS - Cairns Airport, Australia
Distance from Franklin: N 2923km
Updated: 23/07/2018 17:30
Partly cloudy
Partly cloudy
 Wind from E
Wind: E 20 km/h
Temperature: 24°C
Dew Point: 17°C
Humidity: 65%
Barometer: 1015 hPa
Clouds: Partly cloudy
Visibility: 10 km
Cloud details: Partly cloudy 762 m
Partly cloudy 1067 m
2018/07/23 07:30 YBCS 230730Z 09011KT 9999 SCT025 SCT035 24/17 Q1015 NOSIG
YPPH - Perth Intl/Belmo, Australia
Distance from Franklin: WNW 2982km
Updated: 23/07/2018 17:30
Nearby showers, Mostly cloudy
Nearby showers, Mostly cloudy
 Wind from W
Wind: W 24 km/h
Temperature: 17°C
Dew Point: 9°C
Humidity: 59%
Summary: Nearby Showers
Clouds: Mostly cloudy
Visibility: 10 km
Cloud details: Few Clouds 1036 m
Partly cloudy 1189 m
Mostly cloudy 1463 m
2018/07/23 07:30 YPPH 230730Z 26013KT 9999 VCSH FEW034 SCT039 BKN048 17/09
 
YPDN - Darwin (civ/Mil), Australia
Distance from Franklin: NNW 3749km
Updated: 23/07/2018 17:30
Clear
Clear
 Wind from N
Wind: N 17 km/h
Temperature: 29°C
Dew Point: 12°C
Humidity: 35%
Barometer: 1011 hPa
Summary: Clear
Visibility: greater than 10 km
2018/07/23 07:30 YPDN 230730Z 35009KT CAVOK 29/12 Q1011 NOSIG
YBWX - Barrow Island, Australia
Distance from Franklin: NW 3832km
Updated: 23/07/2018 17:00

 Wind from SSW
Wind: SSW 19 km/h
Temperature: 24°C
Dew Point: 14°C
Humidity: 54%
Barometer: 1015 hPa
2018/07/23 07:00 YBWX 230700Z AUTO 20010KT //// // ////// 24/14 Q1015